sensor_id;sensor_type;location;lat;lon;timestamp;P1;durP1;ratioP1;P2;durP2;ratioP2
31692;SDS011;37436;53.230;6.614;2023-04-03T00:00:40;1.42;;;1.05;;
31692;SDS011;37436;53.230;6.614;2023-04-03T00:03:07;9.38;;;1.00;;
31692;SDS011;37436;53.230;6.614;2023-04-03T00:05:33;1.95;;;0.90;;
31692;SDS011;37436;53.230;6.614;2023-04-03T00:08:03;2.30;;;1.10;;
31692;SDS011;37436;53.230;6.614;2023-04-03T00:10:33;1.63;;;0.90;;
31692;SDS011;37436;53.230;6.614;2023-04-03T00:13:01;2.97;;;0.73;;
31692;SDS011;37436;53.230;6.614;2023-04-03T00:15:28;2.83;;;0.80;;
31692;SDS011;37436;53.230;6.614;2023-04-03T00:17:57;3.97;;;2.00;;
31692;SDS011;37436;53.230;6.614;2023-04-03T00:20:24;1.52;;;0.90;;
31692;SDS011;37436;53.230;6.614;2023-04-03T00:22:58;2.78;;;1.30;;
31692;SDS011;37436;53.230;6.614;2023-04-03T00:25:25;2.25;;;1.13;;
31692;SDS011;37436;53.230;6.614;2023-04-03T00:27:58;3.20;;;0.73;;
31692;SDS011;37436;53.230;6.614;2023-04-03T00:30:33;3.88;;;0.77;;
31692;SDS011;37436;53.230;6.614;2023-04-03T00:33:00;4.85;;;1.13;;
31692;SDS011;37436;53.230;6.614;2023-04-03T00:35:27;2.13;;;1.02;;
31692;SDS011;37436;53.230;6.614;2023-04-03T00:37:54;2.45;;;0.90;;
31692;SDS011;37436;53.230;6.614;2023-04-03T00:40:21;3.03;;;1.05;;
31692;SDS011;37436;53.230;6.614;2023-04-03T00:42:49;5.07;;;1.10;;
31692;SDS011;37436;53.230;6.614;2023-04-03T00:45:24;8.05;;;1.40;;
31692;SDS011;37436;53.230;6.614;2023-04-03T00:47:50;2.53;;;0.95;;
31692;SDS011;37436;53.230;6.614;2023-04-03T00:50:17;1.10;;;0.85;;
31692;SDS011;37436;53.230;6.614;2023-04-03T00:52:43;4.90;;;1.38;;
31692;SDS011;37436;53.230;6.614;2023-04-03T00:55:13;4.70;;;1.15;;
31692;SDS011;37436;53.230;6.614;2023-04-03T00:57:41;6.82;;;1.25;;
31692;SDS011;37436;53.230;6.614;2023-04-03T01:00:09;4.78;;;0.93;;
31692;SDS011;37436;53.230;6.614;2023-04-03T01:02:37;4.50;;;1.00;;
31692;SDS011;37436;53.230;6.614;2023-04-03T01:05:10;4.50;;;1.00;;
31692;SDS011;37436;53.230;6.614;2023-04-03T01:07:36;6.85;;;1.05;;
31692;SDS011;37436;53.230;6.614;2023-04-03T01:10:05;5.18;;;1.10;;
31692;SDS011;37436;53.230;6.614;2023-04-03T01:12:35;4.78;;;1.27;;
31692;SDS011;37436;53.230;6.614;2023-04-03T01:15:05;2.33;;;0.82;;
31692;SDS011;37436;53.230;6.614;2023-04-03T01:17:37;7.53;;;1.90;;
31692;SDS011;37436;53.230;6.614;2023-04-03T01:25:09;3.60;;;1.20;;
31692;SDS011;37436;53.230;6.614;2023-04-03T01:27:38;5.05;;;1.25;;
31692;SDS011;37436;53.230;6.614;2023-04-03T01:30:06;3.80;;;1.17;;
31692;SDS011;37436;53.230;6.614;2023-04-03T01:32:35;5.75;;;1.00;;
31692;SDS011;37436;53.230;6.614;2023-04-03T01:35:02;2.50;;;1.05;;
31692;SDS011;37436;53.230;6.614;2023-04-03T01:37:38;4.25;;;1.20;;
31692;SDS011;37436;53.230;6.614;2023-04-03T01:40:05;2.15;;;0.90;;
31692;SDS011;37436;53.230;6.614;2023-04-03T01:42:31;2.63;;;1.13;;
31692;SDS011;37436;53.230;6.614;2023-04-03T01:44:58;8.25;;;1.58;;
31692;SDS011;37436;53.230;6.614;2023-04-03T01:47:24;3.95;;;1.30;;
31692;SDS011;37436;53.230;6.614;2023-04-03T01:49:50;4.95;;;1.65;;
31692;SDS011;37436;53.230;6.614;2023-04-03T01:52:20;8.15;;;1.33;;
31692;SDS011;37436;53.230;6.614;2023-04-03T01:54:47;2.70;;;1.00;;
31692;SDS011;37436;53.230;6.614;2023-04-03T01:57:13;6.82;;;1.67;;
31692;SDS011;37436;53.230;6.614;2023-04-03T01:59:41;5.18;;;1.40;;
31692;SDS011;37436;53.230;6.614;2023-04-03T02:02:07;4.72;;;1.40;;
31692;SDS011;37436;53.230;6.614;2023-04-03T02:04:46;10.05;;;1.75;;
31692;SDS011;37436;53.230;6.614;2023-04-03T02:07:12;9.80;;;1.45;;
31692;SDS011;37436;53.230;6.614;2023-04-03T02:09:38;4.30;;;1.60;;
31692;SDS011;37436;53.230;6.614;2023-04-03T02:12:06;12.88;;;1.45;;
31692;SDS011;37436;53.230;6.614;2023-04-03T02:14:33;8.20;;;1.35;;
31692;SDS011;37436;53.230;6.614;2023-04-03T02:17:02;4.38;;;1.40;;
31692;SDS011;37436;53.230;6.614;2023-04-03T02:19:33;4.03;;;1.27;;
31692;SDS011;37436;53.230;6.614;2023-04-03T02:22:00;8.70;;;1.10;;
31692;SDS011;37436;53.230;6.614;2023-04-03T02:24:26;4.35;;;1.60;;
31692;SDS011;37436;53.230;6.614;2023-04-03T02:26:52;11.32;;;1.67;;
31692;SDS011;37436;53.230;6.614;2023-04-03T02:29:20;7.75;;;2.55;;
31692;SDS011;37436;53.230;6.614;2023-04-03T02:31:46;4.50;;;1.33;;
31692;SDS011;37436;53.230;6.614;2023-04-03T02:34:12;2.17;;;1.35;;
31692;SDS011;37436;53.230;6.614;2023-04-03T02:36:38;4.70;;;1.27;;
31692;SDS011;37436;53.230;6.614;2023-04-03T02:39:05;6.63;;;1.50;;
31692;SDS011;37436;53.230;6.614;2023-04-03T02:41:32;8.13;;;1.48;;
31692;SDS011;37436;53.230;6.614;2023-04-03T02:44:09;5.20;;;1.60;;
31692;SDS011;37436;53.230;6.614;2023-04-03T02:46:35;9.13;;;1.70;;
31692;SDS011;37436;53.230;6.614;2023-04-03T02:49:01;4.15;;;1.58;;
31692;SDS011;37436;53.230;6.614;2023-04-03T02:51:28;5.13;;;1.70;;
31692;SDS011;37436;53.230;6.614;2023-04-03T02:53:54;9.80;;;1.50;;
31692;SDS011;37436;53.230;6.614;2023-04-03T02:56:20;10.85;;;1.92;;
31692;SDS011;37436;53.230;6.614;2023-04-03T02:58:47;8.68;;;1.80;;
31692;SDS011;37436;53.230;6.614;2023-04-03T03:01:14;12.52;;;2.03;;
31692;SDS011;37436;53.230;6.614;2023-04-03T03:03:41;4.28;;;1.63;;
31692;SDS011;37436;53.230;6.614;2023-04-03T03:06:09;4.07;;;1.73;;
31692;SDS011;37436;53.230;6.614;2023-04-03T03:08:36;4.47;;;1.33;;
31692;SDS011;37436;53.230;6.614;2023-04-03T03:11:03;6.05;;;2.47;;
31692;SDS011;37436;53.230;6.614;2023-04-03T03:13:30;6.32;;;1.70;;
31692;SDS011;37436;53.230;6.614;2023-04-03T03:15:56;8.05;;;1.75;;
31692;SDS011;37436;53.230;6.614;2023-04-03T03:18:22;10.63;;;1.10;;
31692;SDS011;37436;53.230;6.614;2023-04-03T03:20:54;5.25;;;2.00;;
31692;SDS011;37436;53.230;6.614;2023-04-03T03:23:22;5.30;;;1.98;;
31692;SDS011;37436;53.230;6.614;2023-04-03T03:25:49;5.72;;;2.03;;
31692;SDS011;37436;53.230;6.614;2023-04-03T03:28:15;4.22;;;1.63;;
31692;SDS011;37436;53.230;6.614;2023-04-03T03:30:42;6.32;;;1.90;;
31692;SDS011;37436;53.230;6.614;2023-04-03T03:33:08;9.05;;;1.67;;
31692;SDS011;37436;53.230;6.614;2023-04-03T03:35:36;7.40;;;2.08;;
31692;SDS011;37436;53.230;6.614;2023-04-03T03:38:02;5.10;;;2.08;;
31692;SDS011;37436;53.230;6.614;2023-04-03T03:40:28;3.95;;;1.35;;
31692;SDS011;37436;53.230;6.614;2023-04-03T03:42:54;4.65;;;1.58;;
31692;SDS011;37436;53.230;6.614;2023-04-03T03:45:21;6.43;;;1.88;;
31692;SDS011;37436;53.230;6.614;2023-04-03T03:47:54;5.65;;;1.65;;
31692;SDS011;37436;53.230;6.614;2023-04-03T03:50:20;2.90;;;1.40;;
31692;SDS011;37436;53.230;6.614;2023-04-03T03:52:46;2.53;;;1.30;;
31692;SDS011;37436;53.230;6.614;2023-04-03T03:55:12;3.25;;;1.40;;
31692;SDS011;37436;53.230;6.614;2023-04-03T03:57:38;4.80;;;2.05;;
31692;SDS011;37436;53.230;6.614;2023-04-03T04:00:09;7.50;;;1.95;;
31692;SDS011;37436;53.230;6.614;2023-04-03T04:02:36;3.70;;;1.52;;
31692;SDS011;37436;53.230;6.614;2023-04-03T04:05:02;8.50;;;1.98;;
31692;SDS011;37436;53.230;6.614;2023-04-03T04:07:30;8.13;;;2.08;;
31692;SDS011;37436;53.230;6.614;2023-04-03T04:09:57;6.65;;;2.15;;
31692;SDS011;37436;53.230;6.614;2023-04-03T04:12:23;11.68;;;2.10;;
31692;SDS011;37436;53.230;6.614;2023-04-03T04:14:50;9.10;;;1.83;;
31692;SDS011;37436;53.230;6.614;2023-04-03T04:17:16;12.43;;;2.17;;
31692;SDS011;37436;53.230;6.614;2023-04-03T04:19:43;12.85;;;2.35;;
31692;SDS011;37436;53.230;6.614;2023-04-03T04:22:09;8.35;;;2.22;;
31692;SDS011;37436;53.230;6.614;2023-04-03T04:24:37;5.00;;;2.10;;
31692;SDS011;37436;53.230;6.614;2023-04-03T04:27:03;8.82;;;2.33;;
31692;SDS011;37436;53.230;6.614;2023-04-03T04:29:29;5.63;;;1.80;;
31692;SDS011;37436;53.230;6.614;2023-04-03T04:32:01;8.52;;;1.75;;
31692;SDS011;37436;53.230;6.614;2023-04-03T04:34:28;8.68;;;1.90;;
31692;SDS011;37436;53.230;6.614;2023-04-03T04:36:54;7.13;;;2.22;;
31692;SDS011;37436;53.230;6.614;2023-04-03T04:39:20;10.23;;;2.55;;
31692;SDS011;37436;53.230;6.614;2023-04-03T04:41:46;9.13;;;1.85;;
31692;SDS011;37436;53.230;6.614;2023-04-03T04:44:14;10.02;;;2.15;;
31692;SDS011;37436;53.230;6.614;2023-04-03T04:46:40;9.70;;;2.47;;
31692;SDS011;37436;53.230;6.614;2023-04-03T04:49:06;5.90;;;2.20;;
31692;SDS011;37436;53.230;6.614;2023-04-03T04:51:33;5.93;;;2.10;;
31692;SDS011;37436;53.230;6.614;2023-04-03T04:53:59;7.63;;;2.90;;
31692;SDS011;37436;53.230;6.614;2023-04-03T04:56:26;8.38;;;2.45;;
31692;SDS011;37436;53.230;6.614;2023-04-03T04:58:52;8.77;;;1.80;;
31692;SDS011;37436;53.230;6.614;2023-04-03T05:01:18;8.05;;;2.25;;
31692;SDS011;37436;53.230;6.614;2023-04-03T05:03:45;11.25;;;3.22;;
31692;SDS011;37436;53.230;6.614;2023-04-03T05:06:13;12.43;;;2.63;;
31692;SDS011;37436;53.230;6.614;2023-04-03T05:08:42;12.55;;;2.95;;
31692;SDS011;37436;53.230;6.614;2023-04-03T05:11:08;12.75;;;2.78;;
31692;SDS011;37436;53.230;6.614;2023-04-03T05:13:34;7.90;;;2.20;;
31692;SDS011;37436;53.230;6.614;2023-04-03T05:16:00;10.02;;;2.83;;
31692;SDS011;37436;53.230;6.614;2023-04-03T05:18:26;7.20;;;2.50;;
31692;SDS011;37436;53.230;6.614;2023-04-03T05:20:52;10.43;;;2.72;;
31692;SDS011;37436;53.230;6.614;2023-04-03T05:23:19;16.88;;;2.72;;
31692;SDS011;37436;53.230;6.614;2023-04-03T05:25:45;12.82;;;3.47;;
31692;SDS011;37436;53.230;6.614;2023-04-03T05:28:12;7.18;;;2.33;;
31692;SDS011;37436;53.230;6.614;2023-04-03T05:30:38;12.20;;;3.03;;
31692;SDS011;37436;53.230;6.614;2023-04-03T05:33:04;13.88;;;2.83;;
31692;SDS011;37436;53.230;6.614;2023-04-03T05:35:31;11.30;;;2.88;;
31692;SDS011;37436;53.230;6.614;2023-04-03T05:37:57;12.75;;;2.50;;
31692;SDS011;37436;53.230;6.614;2023-04-03T05:40:36;10.82;;;2.80;;
31692;SDS011;37436;53.230;6.614;2023-04-03T05:43:02;8.85;;;2.78;;
31692;SDS011;37436;53.230;6.614;2023-04-03T05:45:35;10.85;;;2.67;;
31692;SDS011;37436;53.230;6.614;2023-04-03T05:48:09;7.63;;;2.90;;
31692;SDS011;37436;53.230;6.614;2023-04-03T05:50:35;10.35;;;2.70;;
31692;SDS011;37436;53.230;6.614;2023-04-03T05:53:12;10.10;;;3.05;;
31692;SDS011;37436;53.230;6.614;2023-04-03T05:55:42;10.90;;;2.80;;
31692;SDS011;37436;53.230;6.614;2023-04-03T05:58:08;7.60;;;2.50;;
31692;SDS011;37436;53.230;6.614;2023-04-03T06:00:35;4.10;;;2.03;;
31692;SDS011;37436;53.230;6.614;2023-04-03T06:03:01;12.43;;;3.00;;
31692;SDS011;37436;53.230;6.614;2023-04-03T06:05:28;4.93;;;1.88;;
31692;SDS011;37436;53.230;6.614;2023-04-03T06:07:59;15.98;;;2.40;;
31692;SDS011;37436;53.230;6.614;2023-04-03T06:10:29;8.65;;;2.38;;
31692;SDS011;37436;53.230;6.614;2023-04-03T06:12:55;9.90;;;2.35;;
31692;SDS011;37436;53.230;6.614;2023-04-03T06:15:22;14.77;;;2.25;;
31692;SDS011;37436;53.230;6.614;2023-04-03T06:17:54;7.15;;;2.35;;
31692;SDS011;37436;53.230;6.614;2023-04-03T06:20:28;10.10;;;2.88;;
31692;SDS011;37436;53.230;6.614;2023-04-03T06:23:07;7.30;;;2.90;;
31692;SDS011;37436;53.230;6.614;2023-04-03T06:25:48;7.30;;;2.05;;
31692;SDS011;37436;53.230;6.614;2023-04-03T06:28:15;8.48;;;2.42;;
31692;SDS011;37436;53.230;6.614;2023-04-03T06:30:44;8.70;;;2.33;;
31692;SDS011;37436;53.230;6.614;2023-04-03T06:33:34;10.45;;;2.53;;
31692;SDS011;37436;53.230;6.614;2023-04-03T06:36:07;11.85;;;2.50;;
31692;SDS011;37436;53.230;6.614;2023-04-03T06:38:42;8.10;;;2.40;;
31692;SDS011;37436;53.230;6.614;2023-04-03T06:41:13;7.13;;;2.22;;
31692;SDS011;37436;53.230;6.614;2023-04-03T06:43:42;9.70;;;2.55;;
31692;SDS011;37436;53.230;6.614;2023-04-03T06:46:26;6.13;;;2.15;;
31692;SDS011;37436;53.230;6.614;2023-04-03T06:48:56;7.10;;;1.80;;
31692;SDS011;37436;53.230;6.614;2023-04-03T13:42:43;3.42;;;1.52;;
31692;SDS011;37436;53.230;6.614;2023-04-03T13:58:30;5.90;;;1.48;;
31692;SDS011;37436;53.230;6.614;2023-04-03T14:03:56;2.35;;;1.35;;
31692;SDS011;37436;53.230;6.614;2023-04-03T14:06:41;2.88;;;1.40;;
31692;SDS011;37436;53.230;6.614;2023-04-03T14:09:26;2.92;;;1.70;;
31692;SDS011;37436;53.230;6.614;2023-04-03T17:51:10;8.23;;;1.38;;
31692;SDS011;37436;53.230;6.614;2023-04-03T17:53:37;6.80;;;1.30;;
31692;SDS011;37436;53.230;6.614;2023-04-03T17:56:04;4.55;;;1.33;;
31692;SDS011;37436;53.230;6.614;2023-04-03T17:58:31;3.25;;;1.30;;
31692;SDS011;37436;53.230;6.614;2023-04-03T18:00:58;1.63;;;1.08;;
31692;SDS011;37436;53.230;6.614;2023-04-03T18:03:25;3.85;;;1.55;;
31692;SDS011;37436;53.230;6.614;2023-04-03T18:05:51;1.77;;;1.08;;
31692;SDS011;37436;53.230;6.614;2023-04-03T18:08:17;2.42;;;1.02;;
31692;SDS011;37436;53.230;6.614;2023-04-03T18:10:44;2.10;;;0.95;;
31692;SDS011;37436;53.230;6.614;2023-04-03T18:13:10;3.13;;;1.33;;
31692;SDS011;37436;53.230;6.614;2023-04-03T18:15:39;2.28;;;1.30;;
31692;SDS011;37436;53.230;6.614;2023-04-03T18:18:09;5.40;;;1.30;;
31692;SDS011;37436;53.230;6.614;2023-04-03T18:20:36;2.38;;;1.38;;
31692;SDS011;37436;53.230;6.614;2023-04-03T18:23:04;6.10;;;2.00;;
31692;SDS011;37436;53.230;6.614;2023-04-03T18:25:33;3.90;;;1.60;;
31692;SDS011;37436;53.230;6.614;2023-04-03T18:31:04;3.38;;;1.65;;
31692;SDS011;37436;53.230;6.614;2023-04-03T18:33:35;4.05;;;1.70;;
31692;SDS011;37436;53.230;6.614;2023-04-03T18:36:04;6.35;;;1.88;;
31692;SDS011;37436;53.230;6.614;2023-04-03T18:38:34;7.10;;;2.75;;
31692;SDS011;37436;53.230;6.614;2023-04-03T18:41:00;6.68;;;2.90;;
31692;SDS011;37436;53.230;6.614;2023-04-03T18:43:28;7.30;;;2.80;;
31692;SDS011;37436;53.230;6.614;2023-04-03T18:45:54;8.57;;;2.55;;
31692;SDS011;37436;53.230;6.614;2023-04-03T18:48:20;11.85;;;3.53;;
31692;SDS011;37436;53.230;6.614;2023-04-03T18:50:49;9.55;;;3.97;;
31692;SDS011;37436;53.230;6.614;2023-04-03T18:53:23;11.20;;;4.20;;
31692;SDS011;37436;53.230;6.614;2023-04-03T18:55:49;9.02;;;3.40;;
31692;SDS011;37436;53.230;6.614;2023-04-03T18:58:15;4.60;;;2.30;;
31692;SDS011;37436;53.230;6.614;2023-04-03T19:00:41;7.60;;;2.38;;
31692;SDS011;37436;53.230;6.614;2023-04-03T19:03:08;2.90;;;1.80;;
31692;SDS011;37436;53.230;6.614;2023-04-03T19:05:37;5.13;;;1.63;;
31692;SDS011;37436;53.230;6.614;2023-04-03T19:08:08;5.20;;;2.42;;
31692;SDS011;37436;53.230;6.614;2023-04-03T19:10:34;3.78;;;1.63;;
31692;SDS011;37436;53.230;6.614;2023-04-03T19:13:02;4.05;;;1.85;;
31692;SDS011;37436;53.230;6.614;2023-04-03T19:15:28;5.75;;;2.03;;
31692;SDS011;37436;53.230;6.614;2023-04-03T19:17:57;8.75;;;2.28;;
31692;SDS011;37436;53.230;6.614;2023-04-03T19:20:23;8.23;;;2.28;;
31692;SDS011;37436;53.230;6.614;2023-04-03T19:22:50;3.97;;;1.80;;
31692;SDS011;37436;53.230;6.614;2023-04-03T19:25:18;15.93;;;2.20;;
31692;SDS011;37436;53.230;6.614;2023-04-03T19:27:45;6.05;;;2.00;;
31692;SDS011;37436;53.230;6.614;2023-04-03T19:30:25;5.38;;;2.28;;
31692;SDS011;37436;53.230;6.614;2023-04-03T19:32:54;4.63;;;1.90;;
31692;SDS011;37436;53.230;6.614;2023-04-03T19:35:21;3.60;;;1.90;;
31692;SDS011;37436;53.230;6.614;2023-04-03T19:37:48;6.28;;;1.92;;
31692;SDS011;37436;53.230;6.614;2023-04-03T19:40:18;6.13;;;1.80;;
31692;SDS011;37436;53.230;6.614;2023-04-03T19:42:54;7.53;;;2.08;;
31692;SDS011;37436;53.230;6.614;2023-04-03T19:45:21;2.85;;;1.52;;
31692;SDS011;37436;53.230;6.614;2023-04-03T19:47:50;6.15;;;1.42;;
31692;SDS011;37436;53.230;6.614;2023-04-03T19:50:22;4.13;;;1.60;;
31692;SDS011;37436;53.230;6.614;2023-04-03T19:52:52;8.90;;;1.40;;
31692;SDS011;37436;53.230;6.614;2023-04-03T19:55:18;4.63;;;1.30;;
31692;SDS011;37436;53.230;6.614;2023-04-03T19:57:45;6.15;;;1.35;;
31692;SDS011;37436;53.230;6.614;2023-04-03T20:00:12;5.55;;;1.75;;
31692;SDS011;37436;53.230;6.614;2023-04-03T20:02:39;3.30;;;1.50;;
31692;SDS011;37436;53.230;6.614;2023-04-03T20:05:12;11.50;;;1.45;;
31692;SDS011;37436;53.230;6.614;2023-04-03T20:07:44;4.47;;;1.77;;
31692;SDS011;37436;53.230;6.614;2023-04-03T20:10:12;3.13;;;1.85;;
31692;SDS011;37436;53.230;6.614;2023-04-03T20:12:42;2.53;;;1.48;;
31692;SDS011;37436;53.230;6.614;2023-04-03T20:15:15;4.32;;;1.90;;
31692;SDS011;37436;53.230;6.614;2023-04-03T20:17:51;8.45;;;2.08;;
31692;SDS011;37436;53.230;6.614;2023-04-03T20:20:22;4.22;;;2.00;;
31692;SDS011;37436;53.230;6.614;2023-04-03T20:22:48;5.15;;;2.03;;
31692;SDS011;37436;53.230;6.614;2023-04-03T20:25:17;11.77;;;2.30;;
31692;SDS011;37436;53.230;6.614;2023-04-03T20:27:54;4.43;;;1.88;;
31692;SDS011;37436;53.230;6.614;2023-04-03T20:30:23;6.45;;;2.03;;
31692;SDS011;37436;53.230;6.614;2023-04-03T20:32:50;7.45;;;2.13;;
31692;SDS011;37436;53.230;6.614;2023-04-03T20:35:17;6.72;;;1.98;;
31692;SDS011;37436;53.230;6.614;2023-04-03T20:37:46;4.75;;;2.20;;
31692;SDS011;37436;53.230;6.614;2023-04-03T20:40:12;4.50;;;2.03;;
31692;SDS011;37436;53.230;6.614;2023-04-03T20:42:39;3.92;;;1.92;;
31692;SDS011;37436;53.230;6.614;2023-04-03T20:45:05;3.47;;;2.00;;
31692;SDS011;37436;53.230;6.614;2023-04-03T20:50:14;7.18;;;2.15;;
31692;SDS011;37436;53.230;6.614;2023-04-03T20:52:47;6.72;;;2.08;;
31692;SDS011;37436;53.230;6.614;2023-04-03T20:55:15;4.75;;;1.90;;
31692;SDS011;37436;53.230;6.614;2023-04-03T20:57:41;3.58;;;1.98;;
31692;SDS011;37436;53.230;6.614;2023-04-03T21:00:09;8.50;;;3.08;;
31692;SDS011;37436;53.230;6.614;2023-04-03T21:03:01;6.28;;;2.35;;
31692;SDS011;37436;53.230;6.614;2023-04-03T21:05:33;3.90;;;2.10;;
31692;SDS011;37436;53.230;6.614;2023-04-03T21:19:08;5.25;;;2.30;;
31692;SDS011;37436;53.230;6.614;2023-04-03T21:21:34;5.22;;;2.15;;
31692;SDS011;37436;53.230;6.614;2023-04-03T21:24:04;5.28;;;2.10;;
31692;SDS011;37436;53.230;6.614;2023-04-03T21:26:34;8.52;;;2.25;;
31692;SDS011;37436;53.230;6.614;2023-04-03T21:29:02;6.75;;;2.55;;
31692;SDS011;37436;53.230;6.614;2023-04-03T21:34:14;13.15;;;2.75;;
31692;SDS011;37436;53.230;6.614;2023-04-03T21:36:40;6.90;;;2.50;;
31692;SDS011;37436;53.230;6.614;2023-04-03T21:39:08;7.32;;;2.55;;
31692;SDS011;37436;53.230;6.614;2023-04-03T21:41:40;10.07;;;2.67;;
31692;SDS011;37436;53.230;6.614;2023-04-03T21:44:09;4.75;;;2.17;;
31692;SDS011;37436;53.230;6.614;2023-04-03T21:46:41;12.25;;;2.78;;
31692;SDS011;37436;53.230;6.614;2023-04-03T21:49:08;7.10;;;2.58;;
31692;SDS011;37436;53.230;6.614;2023-04-03T21:51:34;10.40;;;2.65;;
31692;SDS011;37436;53.230;6.614;2023-04-03T21:54:01;5.78;;;2.67;;
31692;SDS011;37436;53.230;6.614;2023-04-03T21:56:40;6.95;;;2.78;;
31692;SDS011;37436;53.230;6.614;2023-04-03T22:01:52;15.27;;;3.85;;
31692;SDS011;37436;53.230;6.614;2023-04-03T22:04:20;8.18;;;3.53;;
31692;SDS011;37436;53.230;6.614;2023-04-03T22:06:50;10.20;;;4.40;;
31692;SDS011;37436;53.230;6.614;2023-04-03T22:09:17;10.05;;;3.88;;
31692;SDS011;37436;53.230;6.614;2023-04-03T22:11:43;6.97;;;3.03;;
31692;SDS011;37436;53.230;6.614;2023-04-03T22:14:09;11.65;;;3.13;;
31692;SDS011;37436;53.230;6.614;2023-04-03T22:16:36;7.40;;;3.28;;
31692;SDS011;37436;53.230;6.614;2023-04-03T22:19:04;10.00;;;3.60;;
31692;SDS011;37436;53.230;6.614;2023-04-03T22:21:34;6.50;;;2.63;;
31692;SDS011;37436;53.230;6.614;2023-04-03T22:24:00;13.35;;;4.03;;
31692;SDS011;37436;53.230;6.614;2023-04-03T22:26:26;11.73;;;3.45;;
31692;SDS011;37436;53.230;6.614;2023-04-03T22:28:52;6.88;;;3.17;;
31692;SDS011;37436;53.230;6.614;2023-04-03T22:31:19;7.47;;;3.78;;
31692;SDS011;37436;53.230;6.614;2023-04-03T22:33:45;12.82;;;5.60;;
31692;SDS011;37436;53.230;6.614;2023-04-03T22:36:11;16.27;;;4.28;;
31692;SDS011;37436;53.230;6.614;2023-04-03T22:38:38;6.63;;;3.97;;
31692;SDS011;37436;53.230;6.614;2023-04-03T22:41:08;7.35;;;3.60;;
31692;SDS011;37436;53.230;6.614;2023-04-03T22:43:43;8.25;;;3.55;;
31692;SDS011;37436;53.230;6.614;2023-04-03T22:46:10;8.73;;;3.38;;
31692;SDS011;37436;53.230;6.614;2023-04-03T22:48:41;7.80;;;3.60;;
31692;SDS011;37436;53.230;6.614;2023-04-03T22:51:19;11.75;;;3.42;;
31692;SDS011;37436;53.230;6.614;2023-04-03T22:54:02;7.25;;;3.75;;
31692;SDS011;37436;53.230;6.614;2023-04-03T22:56:31;10.05;;;3.75;;
31692;SDS011;37436;53.230;6.614;2023-04-03T22:58:58;7.15;;;3.17;;
31692;SDS011;37436;53.230;6.614;2023-04-03T23:01:30;11.00;;;3.65;;
31692;SDS011;37436;53.230;6.614;2023-04-03T23:03:56;8.95;;;3.70;;
31692;SDS011;37436;53.230;6.614;2023-04-03T23:06:34;8.07;;;3.45;;
31692;SDS011;37436;53.230;6.614;2023-04-03T23:09:04;9.07;;;4.43;;
31692;SDS011;37436;53.230;6.614;2023-04-03T23:14:10;9.73;;;3.58;;
31692;SDS011;37436;53.230;6.614;2023-04-03T23:16:50;9.82;;;3.58;;
31692;SDS011;37436;53.230;6.614;2023-04-03T23:19:16;13.35;;;3.15;;
31692;SDS011;37436;53.230;6.614;2023-04-03T23:21:44;12.70;;;3.55;;
31692;SDS011;37436;53.230;6.614;2023-04-03T23:24:16;10.43;;;3.60;;
31692;SDS011;37436;53.230;6.614;2023-04-03T23:26:44;7.97;;;3.33;;
31692;SDS011;37436;53.230;6.614;2023-04-03T23:29:11;10.43;;;3.47;;
31692;SDS011;37436;53.230;6.614;2023-04-03T23:31:38;11.70;;;3.33;;
31692;SDS011;37436;53.230;6.614;2023-04-03T23:34:04;7.28;;;3.55;;
31692;SDS011;37436;53.230;6.614;2023-04-03T23:36:31;9.80;;;4.07;;
31692;SDS011;37436;53.230;6.614;2023-04-03T23:41:53;9.55;;;3.35;;
31692;SDS011;37436;53.230;6.614;2023-04-03T23:44:19;15.52;;;3.60;;
31692;SDS011;37436;53.230;6.614;2023-04-03T23:46:58;7.03;;;3.13;;
31692;SDS011;37436;53.230;6.614;2023-04-03T23:49:26;9.43;;;3.20;;
31692;SDS011;37436;53.230;6.614;2023-04-03T23:52:00;10.38;;;3.60;;
31692;SDS011;37436;53.230;6.614;2023-04-03T23:54:26;7.93;;;3.28;;
31692;SDS011;37436;53.230;6.614;2023-04-03T23:56:57;8.23;;;2.95;;
31692;SDS011;37436;53.230;6.614;2023-04-03T23:59:26;11.77;;;3.45;;
